createdAt,value
2022-12-19T00:02:03.695Z,44.83
2022-12-19T00:07:06.457Z,39.80
2022-12-19T00:12:17.415Z,44.00
2022-12-19T00:17:23.856Z,41.90
2022-12-19T00:22:26.700Z,42.00
2022-12-19T00:27:29.303Z,44.40
2022-12-19T00:32:33.660Z,41.83
2022-12-19T00:37:36.294Z,41.43
2022-12-19T00:42:40.964Z,41.57
2022-12-19T00:47:45.867Z,42.45
2022-12-19T00:52:48.807Z,39.53
2022-12-19T00:57:51.557Z,41.10
2022-12-19T01:02:58.722Z,38.97
2022-12-19T01:08:01.389Z,43.13
2022-12-19T01:13:06.274Z,41.42
2022-12-19T01:18:12.023Z,42.92
2022-12-19T01:23:15.777Z,42.10
2022-12-19T01:28:20.113Z,43.70
2022-12-19T01:33:26.323Z,44.72
2022-12-19T01:38:29.675Z,42.97
2022-12-19T01:43:34.918Z,45.13
2022-12-19T01:48:43.778Z,41.37
2022-12-19T01:53:50.938Z,44.30
2022-12-19T01:59:06.087Z,42.78
2022-12-19T02:04:14.415Z,42.27
2022-12-19T02:09:17.575Z,40.65
2022-12-19T02:14:20.895Z,39.72
2022-12-19T02:19:53.693Z,37.70
2022-12-19T02:25:22.047Z,38.95
2022-12-19T02:30:54.024Z,39.92
2022-12-19T02:36:02.828Z,40.17
2022-12-19T02:41:09.617Z,40.33
2022-12-19T02:46:14.654Z,40.27
2022-12-19T02:51:18.533Z,36.78
2022-12-19T02:56:40.958Z,35.83
2022-12-19T03:01:48.727Z,38.47
2022-12-19T03:06:56.323Z,39.25
2022-12-19T03:12:07.546Z,36.80
2022-12-19T03:17:12.175Z,36.43
2022-12-19T03:22:15.035Z,41.15
2022-12-19T03:27:23.682Z,36.03
2022-12-19T03:32:30.430Z,36.90
2022-12-19T03:37:38.178Z,38.67
2022-12-19T03:42:59.762Z,36.95
2022-12-19T03:48:08.648Z,36.75
2022-12-19T03:53:22.668Z,36.60
2022-12-19T03:58:31.472Z,37.53
2022-12-19T04:03:37.072Z,38.42
2022-12-19T04:08:39.984Z,39.05
2022-12-19T04:13:48.538Z,41.03
2022-12-19T04:18:59.059Z,39.58
2022-12-19T04:24:06.815Z,42.25
2022-12-19T04:29:12.540Z,39.83
2022-12-19T04:34:20.626Z,42.08
2022-12-19T04:39:23.842Z,42.53
2022-12-19T04:44:27.413Z,45.73
2022-12-19T04:49:31.730Z,44.80
2022-12-19T04:54:34.526Z,46.40
2022-12-19T04:59:37.645Z,46.92
2022-12-19T05:04:41.613Z,50.33
2022-12-19T05:09:44.187Z,46.58
2022-12-19T05:14:47.342Z,45.75
2022-12-19T05:19:51.224Z,45.35
2022-12-19T05:24:53.825Z,48.85
2022-12-19T05:29:57.070Z,43.67
2022-12-19T05:35:01.202Z,48.22
2022-12-19T05:40:03.820Z,46.45
2022-12-19T05:45:07.240Z,47.60
2022-12-19T05:50:11.511Z,48.13
2022-12-19T05:55:14.504Z,48.42
2022-12-19T06:00:17.429Z,46.30
2022-12-19T06:05:21.339Z,46.40
2022-12-19T06:10:24.111Z,46.42
2022-12-19T06:15:27.291Z,54.55
2022-12-19T06:20:31.211Z,43.93
2022-12-19T06:25:34.984Z,45.30
2022-12-19T06:30:37.744Z,46.90
2022-12-19T06:35:42.314Z,37.45
2022-12-19T06:41:03.607Z,40.37
2022-12-19T06:46:07.427Z,39.43
2022-12-19T06:51:11.832Z,38.25
2022-12-19T06:56:16.348Z,44.00
2022-12-19T07:01:19.679Z,43.20
2022-12-19T07:06:24.491Z,46.40
2022-12-19T07:11:27.072Z,44.08
2022-12-19T07:16:29.869Z,40.33
2022-12-19T07:21:34.113Z,41.42
2022-12-19T07:26:36.846Z,42.28
2022-12-19T07:31:40.573Z,42.60
2022-12-19T07:36:44.521Z,44.25
2022-12-19T07:41:47.344Z,40.85
2022-12-19T07:46:50.005Z,38.50
2022-12-19T07:51:53.941Z,53.40
2022-12-19T07:56:56.502Z,39.78
2022-12-19T08:01:59.143Z,39.75
2022-12-19T08:07:03.338Z,37.67
2022-12-19T08:12:06.378Z,41.88
2022-12-19T08:17:20.428Z,36.50
2022-12-19T08:22:24.878Z,39.45
2022-12-19T08:27:28.183Z,36.60
2022-12-19T08:32:30.885Z,34.80
2022-12-19T08:37:34.780Z,55.05
2022-12-19T08:42:38.148Z,41.25
2022-12-19T08:47:40.711Z,33.97
2022-12-19T08:52:44.615Z,32.93
2022-12-19T08:57:48.193Z,38.50
2022-12-19T09:02:51.689Z,35.47
2022-12-19T09:07:55.685Z,34.08
2022-12-19T09:12:58.725Z,41.25
2022-12-19T09:18:01.286Z,31.40
2022-12-19T09:23:05.545Z,36.40
2022-12-19T09:33:35.513Z,37.60
2022-12-19T09:38:44.206Z,27.00
2022-12-19T09:43:59.564Z,27.77
2022-12-19T09:49:12.962Z,31.05
2022-12-19T09:54:23.362Z,28.40
2022-12-19T09:59:33.194Z,29.63
2022-12-19T10:04:49.242Z,31.95
2022-12-19T10:11:59.380Z,32.35
2022-12-19T10:15:26.870Z,31.85
2022-12-19T10:20:31.291Z,31.73
2022-12-19T10:26:00.673Z,31.48
2022-12-19T10:31:20.705Z,32.57
2022-12-19T10:36:48.700Z,30.75
2022-12-19T10:41:53.931Z,32.03
2022-12-19T10:46:56.554Z,29.50
2022-12-19T10:52:01.104Z,31.67
2022-12-19T10:57:20.371Z,33.28
2022-12-19T11:02:34.767Z,28.80
2022-12-19T11:07:37.476Z,30.00
2022-12-19T11:19:17.683Z,25.90
2022-12-19T11:27:13.903Z,30.58
2022-12-19T11:29:39.997Z,31.98
2022-12-19T11:31:51.351Z,31.60
2022-12-19T11:34:50.687Z,25.85
2022-12-19T11:39:59.548Z,31.25
2022-12-19T11:45:12.674Z,27.48
2022-12-19T11:50:18.927Z,28.60
2022-12-19T11:55:25.583Z,28.10
2022-12-19T12:00:31.128Z,29.08
2022-12-19T12:05:56.456Z,26.85
2022-12-19T12:15:19.058Z,33.60
2022-12-19T12:31:10.767Z,26.90
2022-12-19T12:32:02.267Z,33.47
2022-12-19T12:32:03.522Z,22.98
2022-12-19T12:35:32.949Z,22.88
2022-12-19T12:39:03.401Z,26.17
2022-12-19T12:44:10.043Z,27.60
2022-12-19T12:49:32.933Z,25.83
2022-12-19T12:54:38.898Z,25.33
2022-12-19T12:59:46.388Z,23.63
2022-12-19T13:04:58.756Z,27.50
2022-12-19T13:10:19.339Z,25.20
2022-12-19T13:15:37.156Z,24.20
2022-12-19T13:20:45.081Z,23.80
2022-12-19T13:25:51.385Z,26.40
2022-12-19T13:31:22.847Z,27.17
2022-12-19T13:39:54.508Z,23.90
2022-12-19T13:42:46.068Z,21.95
2022-12-19T13:47:51.854Z,25.90
2022-12-19T13:52:55.142Z,21.77
2022-12-19T13:57:59.042Z,20.60
2022-12-19T14:03:02.993Z,20.38
2022-12-19T14:08:08.332Z,22.27
2022-12-19T14:13:58.131Z,20.50
2022-12-19T14:19:00.373Z,21.95
2022-12-19T14:24:10.480Z,20.55
2022-12-19T14:29:17.911Z,22.30
2022-12-19T14:35:05.055Z,23.13
2022-12-19T14:40:08.539Z,20.45
2022-12-19T14:52:08.673Z,18.27
2022-12-19T14:54:04.907Z,20.17
2022-12-19T14:57:01.971Z,20.92
2022-12-19T15:02:27.708Z,18.40
2022-12-19T15:07:35.604Z,18.30
2022-12-19T15:14:47.192Z,16.77
2022-12-19T15:18:39.926Z,15.45
2022-12-19T15:23:44.731Z,19.20
2022-12-19T15:28:49.991Z,17.53
2022-12-19T15:34:32.373Z,15.88
2022-12-19T15:39:17.638Z,16.27
2022-12-19T15:44:31.509Z,17.33
2022-12-19T15:49:35.879Z,17.77
2022-12-19T15:54:53.864Z,16.35
2022-12-19T15:59:58.158Z,15.45
2022-12-19T16:05:04.415Z,16.77
2022-12-19T16:10:10.549Z,16.07
2022-12-19T16:15:21.068Z,17.95
2022-12-19T16:20:27.615Z,15.80
2022-12-19T16:25:35.860Z,15.25
2022-12-19T16:30:40.396Z,17.55
2022-12-19T16:41:15.671Z,13.52
2022-12-19T16:46:21.619Z,14.50
2022-12-19T16:51:28.957Z,13.43
2022-12-19T16:56:35.301Z,14.73
2022-12-19T17:01:37.980Z,16.40
2022-12-19T17:06:42.264Z,17.73
2022-12-19T17:11:48.525Z,21.90
2022-12-19T17:16:55.143Z,15.47
2022-12-19T17:21:59.323Z,13.65
2022-12-19T17:27:01.999Z,17.00
2022-12-19T17:32:06.837Z,15.52
2022-12-19T17:37:17.354Z,15.48
2022-12-19T17:42:23.355Z,15.70
2022-12-19T17:47:27.391Z,13.95
2022-12-19T17:52:36.670Z,14.77
2022-12-19T17:57:39.837Z,13.77
2022-12-19T18:02:45.260Z,22.23
2022-12-19T18:07:50.657Z,35.03
2022-12-19T18:12:54.157Z,17.70
2022-12-19T18:18:00.510Z,14.65
2022-12-19T18:23:18.664Z,14.20
2022-12-19T18:28:23.140Z,24.87
2022-12-19T18:33:26.375Z,19.20
2022-12-19T18:38:30.334Z,14.23
2022-12-19T18:43:33.933Z,16.10
2022-12-19T18:48:38.047Z,12.20
2022-12-19T18:53:43.393Z,13.75
2022-12-19T18:58:47.165Z,20.48
2022-12-19T19:03:55.227Z,15.90
2022-12-19T19:09:00.360Z,13.85
2022-12-19T19:14:23.129Z,15.10
2022-12-19T19:19:26.024Z,22.83
2022-12-19T19:24:30.827Z,16.77
2022-12-19T19:29:34.210Z,11.88
2022-12-19T19:34:41.369Z,12.80
2022-12-19T19:39:48.284Z,13.38
2022-12-19T19:44:51.759Z,11.98
2022-12-19T19:49:56.131Z,47.42
2022-12-19T19:55:00.416Z,11.55
2022-12-19T20:00:04.000Z,12.65
2022-12-19T20:05:17.413Z,12.43
2022-12-19T20:10:21.358Z,11.90
2022-12-19T20:15:24.446Z,12.27
2022-12-19T20:20:28.450Z,13.67
2022-12-19T20:25:32.842Z,49.40
2022-12-19T20:30:37.709Z,11.88
2022-12-19T20:35:40.893Z,7.67
2022-12-19T20:40:46.923Z,12.50
2022-12-19T20:45:50.733Z,12.60
2022-12-19T20:50:56.697Z,13.30
2022-12-19T20:56:02.922Z,9.80
2022-12-19T21:01:08.989Z,9.95
2022-12-19T21:06:13.469Z,8.85
2022-12-19T21:11:17.387Z,13.60
2022-12-19T21:16:23.264Z,6.63
2022-12-19T21:21:28.490Z,9.03
2022-12-19T21:26:33.884Z,8.35
2022-12-19T21:31:36.555Z,9.20
2022-12-19T21:36:39.523Z,9.85
2022-12-19T21:41:43.582Z,8.77
2022-12-19T21:46:48.082Z,7.37
2022-12-19T21:51:50.695Z,7.60
2022-12-19T21:56:54.680Z,9.03
2022-12-19T22:01:57.764Z,8.30
2022-12-19T22:07:00.648Z,8.55
2022-12-19T22:12:04.848Z,7.63
2022-12-19T22:17:07.506Z,7.07
2022-12-19T22:22:10.491Z,10.82
2022-12-19T22:27:14.451Z,10.23
2022-12-19T22:32:17.626Z,10.67
2022-12-19T22:37:20.187Z,10.32
2022-12-19T22:42:24.097Z,8.83
2022-12-19T22:47:26.727Z,11.23
2022-12-19T22:52:29.302Z,9.57
2022-12-19T22:57:33.539Z,7.68
2022-12-19T23:02:39.548Z,9.15
2022-12-19T23:07:42.298Z,8.87
2022-12-19T23:12:46.739Z,8.60
2022-12-19T23:17:49.288Z,7.53
2022-12-19T23:22:51.867Z,8.13
2022-12-19T23:27:55.802Z,8.60
2022-12-19T23:32:58.333Z,9.07
2022-12-19T23:38:00.896Z,9.05
2022-12-19T23:43:05.034Z,10.73
2022-12-19T23:48:08.110Z,9.77
2022-12-19T23:53:10.852Z,7.32
2022-12-19T23:58:20.756Z,7.70
